Flight Track Log - Related Links

Times and Time Zones

All times are in EDT time to prevent confusion due to time zone crossing. See the BJS542 flight status page for this flight to view local times or setup timezone preferences in your user account.

Time Position Orientation Groundspeed Altitude Reporting Facility
EDT Latitude Longitude Course Direction KTS MPH feet Rate Location/Type
Wed 11:19:52 AM 26.4856 -80.0806 343° North 236 272 7,800  Level Miami Center
Wed 11:20:52 AM 26.5300 -80.1539 304° West 292 336 10,000 1,950 Climbing Miami Center
Wed 11:21:52 AM 26.5547 -80.2544 285° West 323 372 11,700 2,350 Climbing Miami Center
Wed 11:22:52 AM 26.5900 -80.3531 292° West 341 392 14,700 2,200 Climbing Miami Center
Wed 11:23:52 AM 26.6653 -80.4367 315° West 362 417 16,100 650 Climbing Miami Center
Wed 11:24:00 AM 26.6242 -80.5079 282° West  Level FlightAware Approximate
Wed 11:24:52 AM 26.7403 -80.5272 313° West 387 445 16,000  Level Miami Center
Wed 11:25:52 AM 26.8092 -80.6061 314° West 393 452 16,000  Level Miami Center
Wed 11:26:52 AM 26.8864 -80.6950 314° West 393 452 16,000  Level Miami Center
Wed 11:27:52 AM 26.9672 -80.7931 313° West 393 452 16,000  Level Miami Center
Wed 11:28:52 AM 27.0419 -80.8819 313° West 393 452 16,000  Level Miami Center
Wed 11:29:52 AM 27.1189 -80.9708 314° West 393 452 16,000  Level Miami Center
Wed 11:30:52 AM 27.1875 -81.0525 313° West 393 452 16,000  Level Miami Center
Wed 11:31:52 AM 27.2622 -81.1417 313° West 393 452 16,000 -400 Level Miami Center
Wed 11:32:52 AM 27.3447 -81.2406 313° West 393 452 15,200 -1,150 Descending Miami Center
Wed 11:33:52 AM 27.4192 -81.3278 314° West 388 447 13,700 -1,500 Descending Miami Center
Wed 11:34:52 AM 27.4856 -81.4122 312° West 375 432 12,200 -1,500 Descending Miami Center
Wed 11:35:52 AM 27.5419 -81.4775 314° West 345 397 10,700 -1,450 Descending Miami Center
Wed 11:36:52 AM 27.5983 -81.5431 314° West 308 354 9,300 -1,750 Descending Miami Center
Wed 11:37:52 AM 27.6650 -81.6044 321° Northwest 289 333 7,200 -1,900 Descending Miami Center
Wed 11:38:52 AM 27.7258 -81.6608 321° Northwest 284 327 5,500 -1,600 Descending Miami Center
Wed 11:39:52 AM 27.7844 -81.7175 319° Northwest 278 320 4,000 -1,150 Descending Miami Center
Wed 11:40:52 AM 27.8342 -81.7900 308° West 278 320 3,200 -600 Descending Miami Center
Wed 11:41:52 AM 27.8819 -81.8578 309° West 283 326 2,800 -545 Descending Miami Center
Wed 11:42:09 AM 27.9000 -81.8833 309° West 271 312 2,500 -930 Descending Tampa TRACON
Wed 11:43:03 AM 27.9500 -81.9333 319° Northwest 256 295 1,700 -850 Descending Tampa TRACON
Wed 11:44:09 AM 27.9833 -81.9833 307° West 180 207 800 5,077 Descending Tampa TRACON
Wed 11:45:52 AM 28.0794 -82.1111 310° West 275 316 16,000 4,090 Climbing Miami Center
Wed 11:47:52 AM 28.0794 -82.1111 348° North 275 316 16,000  Level Miami Center
Wed 11:49:00 AM 28.0080 -82.0409 139° Southeast  Level FlightAware Approximate
Wed 11:56:00 AM 27.9833 -82.0167 139° Southeast  Level FlightAware Approximate
Wed 11:57:00 AM 27.9889 -82.0186 139° Southeast  Level Estimated
Wed 11:58:00 AM 27.9833 -82.0167 139° Southeast  Level FlightAware Approximate
Wed 11:59:00 AM 27.9889 -82.0186 139° Southeast  Level Estimated
Wed 12:00:00 PM 27.9833 -82.0167 139° Southeast  Level FlightAware Approximate
Wed 12:01:00 PM 27.9889 -82.0186 139° Southeast  Level Estimated

Login

Don't have an account? Register now (free) for customized features, flight alerts, and more!